Time;durP1;ratioP1;P1;durP2;ratioP2;P2;SDS_P1;SDS_P2;PMS_P1;PMS_P2;Temp;Humidity;BMP_temperature;BMP_pressure;BME280_temperature;BME280_humidity;BME280_pressure;Samples;Min_cycle;Max_cycle;Signal;HPM_P1;HPM_P2
2023/09/19 00:01:39;;;;;;;11.50;10.30;;;;;;;19.25;75.46;99774.80;107683;276;97232;-53
2023/09/19 00:04:12;;;;;;;12.00;10.10;;;;;;;19.27;75.79;99775.58;107633;276;119270;-53
2023/09/19 00:06:47;;;;;;;13.20;10.70;;;;;;;19.29;75.72;99770.92;107634;277;105497;-57
2023/09/19 00:09:22;;;;;;;11.10;10.00;;;;;;;19.28;75.67;99768.96;107651;276;114675;-57
2023/09/19 00:12:00;;;;;;;12.00;10.70;;;;;;;19.25;75.80;99766.27;107686;276;95608;-56
2023/09/19 00:14:35;;;;;;;12.40;10.30;;;;;;;19.25;75.83;99765.70;107690;276;98222;-56
2023/09/19 00:17:17;;;;;;;11.20;10.10;;;;;;;19.22;75.91;99764.95;107660;276;120408;-53
2023/09/19 00:19:54;;;;;;;13.70;10.40;;;;;;;19.20;75.90;99768.67;107687;276;105693;-53
2023/09/19 00:22:29;;;;;;;11.30;10.00;;;;;;;19.22;75.92;99767.92;107734;277;115072;-57
2023/09/19 00:25:06;;;;;;;13.20;10.30;;;;;;;19.21;75.93;99767.80;107475;276;97157;-57
2023/09/19 00:27:51;;;;;;;12.90;10.30;;;;;;;19.24;76.07;99762.52;107663;276;97625;-57
2023/09/19 00:30:26;;;;;;;13.40;10.30;;;;;;;19.25;76.07;99758.81;107652;276;121877;-57
2023/09/19 00:32:58;;;;;;;12.40;10.60;;;;;;;19.24;76.09;99759.67;107852;276;105590;-58
2023/09/19 00:35:33;;;;;;;11.90;10.00;;;;;;;19.26;76.19;99759.36;107690;276;114469;-59
2023/09/19 00:38:10;;;;;;;13.00;10.30;;;;;;;19.24;76.20;99755.89;107635;277;94143;-56
2023/09/19 00:40:51;;;;;;;13.20;10.60;;;;;;;19.21;76.24;99756.31;107664;276;97701;-54
2023/09/19 00:43:34;;;;;;;11.50;10.00;;;;;;;19.19;76.17;99755.61;107489;277;121140;-54
2023/09/19 00:46:16;;;;;;;12.10;10.00;;;;;;;19.17;76.44;99751.61;107708;276;104938;-56
2023/09/19 00:48:50;;;;;;;11.10;9.70;;;;;;;19.14;76.41;99748.90;107676;276;115922;-57
2023/09/19 00:51:27;;;;;;;12.70;10.80;;;;;;;19.12;76.55;99748.23;107525;277;97667;-58
2023/09/19 00:54:01;;;;;;;12.50;10.70;;;;;;;19.14;76.63;99751.55;107702;277;96368;-59
2023/09/19 00:56:37;;;;;;;12.60;10.80;;;;;;;19.13;76.59;99752.17;107802;277;120053;-57
2023/09/19 00:59:15;;;;;;;13.20;10.90;;;;;;;19.06;76.49;99748.61;107701;276;104867;-56
2023/09/19 01:01:53;;;;;;;12.20;10.80;;;;;;;19.03;76.52;99754.23;107715;276;114205;-58
2023/09/19 01:04:27;;;;;;;13.50;11.10;;;;;;;18.99;76.45;99750.09;107806;276;95754;-58
2023/09/19 01:07:14;;;;;;;12.10;10.50;;;;;;;19.00;76.78;99744.77;107777;277;95818;-54
2023/09/19 01:09:53;;;;;;;13.50;10.40;;;;;;;18.93;77.01;99741.87;107621;276;120433;-54
2023/09/19 01:12:45;;;;;;;13.50;10.60;;;;;;;18.95;76.90;99736.20;107694;276;105877;-57
2023/09/19 01:15:30;;;;;;;15.40;11.60;;;;;;;18.95;77.02;99733.84;107614;276;113698;-57
2023/09/19 01:18:18;;;;;;;13.70;11.10;;;;;;;18.94;77.13;99734.50;107751;276;96836;-59
2023/09/19 01:21:09;;;;;;;13.40;10.90;;;;;;;18.92;76.99;99731.95;107626;277;96089;-55
2023/09/19 01:24:10;;;;;;;13.00;10.60;;;;;;;18.89;77.06;99722.67;107485;276;120663;-56
2023/09/19 01:27:18;;;;;;;13.20;11.00;;;;;;;18.92;77.16;99718.42;107727;276;105095;-59
2023/09/19 01:29:54;;;;;;;12.70;11.10;;;;;;;18.90;77.09;99718.73;107573;277;113700;-58
2023/09/19 01:32:32;;;;;;;12.50;10.80;;;;;;;18.86;77.31;99717.17;107698;276;96459;-53
2023/09/19 01:35:12;;;;;;;12.50;11.00;;;;;;;18.82;77.21;99713.36;107679;276;97557;-53
2023/09/19 01:37:56;;;;;;;12.20;10.70;;;;;;;18.81;77.29;99706.95;107796;276;120738;-58
2023/09/19 01:40:31;;;;;;;12.70;10.90;;;;;;;18.82;77.43;99710.67;107862;276;105097;-58
2023/09/19 01:43:14;;;;;;;11.70;10.10;;;;;;;18.83;77.34;99708.42;107701;276;113707;-54
2023/09/19 01:46:00;;;;;;;11.70;10.20;;;;;;;18.83;77.40;99704.46;107692;277;96252;-54
2023/09/19 01:48:47;;;;;;;13.60;11.50;;;;;;;18.81;77.56;99701.86;107659;276;96948;-53
2023/09/19 01:51:34;;;;;;;13.60;11.10;;;;;;;18.85;77.60;99692.86;107657;276;118746;-53
2023/09/19 01:54:12;;;;;;;12.90;11.30;;;;;;;18.86;77.55;99692.77;107672;276;105981;-52
2023/09/19 01:56:51;;;;;;;11.90;10.70;;;;;;;18.80;77.74;99691.50;107698;276;114780;-58
2023/09/19 01:59:36;;;;;;;12.20;11.00;;;;;;;18.82;77.44;99694.75;107652;276;95178;-56
2023/09/19 02:02:10;;;;;;;13.40;11.40;;;;;;;18.81;77.52;99686.98;107689;276;98142;-59
2023/09/19 02:04:44;;;;;;;;;;;;;;;18.79;77.58;99692.92;107799;276;117805;-59
2023/09/19 02:07:19;;;;;;;11.90;10.50;;;;;;;18.78;77.61;99691.38;107706;276;104274;-55
2023/09/19 02:09:55;;;;;;;12.00;10.60;;;;;;;18.74;77.73;99691.55;107642;276;114614;-55
2023/09/19 02:12:30;;;;;;;12.20;10.90;;;;;;;18.75;77.56;99689.48;107656;277;95160;-55
2023/09/19 02:15:03;;;;;;;12.60;10.50;;;;;;;18.74;77.68;99685.38;107684;276;98038;-54
2023/09/19 02:17:38;;;;;;;11.30;10.10;;;;;;;18.75;77.80;99682.97;107723;276;121602;-53
2023/09/19 02:20:15;;;;;;;14.60;11.20;;;;;;;18.72;78.00;99678.84;107725;276;105646;-53
2023/09/19 02:22:52;;;;;;;11.90;10.60;;;;;;;18.72;77.94;99675.23;107775;276;114037;-58
2023/09/19 02:25:32;;;;;;;12.60;11.10;;;;;;;18.73;77.78;99677.38;107840;276;94793;-58
2023/09/19 02:28:09;;;;;;;13.00;11.40;;;;;;;18.71;77.69;99673.30;107687;277;98075;-54
2023/09/19 02:30:43;;;;;;;13.70;11.30;;;;;;;18.71;77.88;99669.74;107698;276;120912;-55
2023/09/19 02:33:18;;;;;;;12.00;10.80;;;;;;;18.71;77.86;99667.34;107874;276;102734;-58
2023/09/19 02:35:57;;;;;;;12.30;10.80;;;;;;;18.71;77.88;99662.35;107857;277;114861;-55
2023/09/19 02:38:32;;;;;;;12.60;11.30;;;;;;;18.71;77.83;99660.49;107585;276;96462;-53
2023/09/19 02:41:08;;;;;;;13.00;10.70;;;;;;;18.67;77.87;99656.63;107639;276;97578;-53
2023/09/19 02:43:46;;;;;;;13.60;12.20;;;;;;;18.63;77.93;99658.23;107612;276;121156;-53
2023/09/19 02:46:25;;;;;;;13.00;11.30;;;;;;;18.60;78.01;99659.53;107670;276;105925;-57
2023/09/19 02:49:06;;;;;;;14.80;12.00;;;;;;;18.52;78.28;99659.45;107615;276;115590;-56
2023/09/19 02:51:44;;;;;;;13.30;11.30;;;;;;;18.50;78.14;99654.17;107665;276;97957;-58
2023/09/19 02:54:17;;;;;;;12.30;10.60;;;;;;;18.45;78.23;99653.94;107736;276;97017;-58
2023/09/19 02:56:54;;;;;;;11.90;10.70;;;;;;;18.42;78.36;99656.69;107697;276;120586;-54
2023/09/19 02:59:31;;;;;;;12.80;11.50;;;;;;;18.33;78.52;99649.88;107672;276;105046;-53
2023/09/19 03:02:08;;;;;;;13.40;11.40;;;;;;;18.35;78.56;99647.20;107818;276;114683;-58
2023/09/19 03:04:41;;;;;;;13.10;10.80;;;;;;;18.36;78.82;99648.48;107836;276;96373;-59
2023/09/19 03:07:17;;;;;;;14.40;11.00;;;;;;;18.38;78.62;99644.95;107892;276;96972;-58
2023/09/19 03:09:55;;;;;;;13.30;11.10;;;;;;;18.35;78.73;99642.94;107845;276;118835;-59
2023/09/19 03:12:42;;;;;;;14.50;11.50;;;;;;;18.31;78.78;99640.99;107731;276;105309;-52
2023/09/19 03:15:24;;;;;;;12.20;11.00;;;;;;;18.27;78.74;99637.66;107705;276;114200;-53
2023/09/19 03:17:57;;;;;;;12.60;11.20;;;;;;;18.22;78.84;99640.34;107654;277;96215;-55
2023/09/19 03:20:38;;;;;;;13.70;11.20;;;;;;;18.15;79.05;99641.42;107748;277;97337;-58
2023/09/19 03:23:20;;;;;;;14.10;11.20;;;;;;;18.15;79.25;99640.33;107734;273;118401;-60
2023/09/19 03:25:55;;;;;;;12.50;11.20;;;;;;;18.14;79.15;99641.64;107675;277;104881;-57
2023/09/19 03:28:37;;;;;;;12.30;11.00;;;;;;;18.11;79.11;99636.46;107638;277;113197;-58
2023/09/19 03:31:09;;;;;;;12.10;10.80;;;;;;;18.12;79.19;99637.33;107608;277;96710;-58
2023/09/19 03:33:51;;;;;;;13.30;11.40;;;;;;;18.07;79.39;99632.81;107457;277;96023;-53
2023/09/19 03:36:30;;;;;;;12.10;10.50;;;;;;;18.08;79.47;99627.73;107465;277;120059;-54
2023/09/19 03:39:07;;;;;;;12.30;11.00;;;;;;;18.12;79.73;99627.49;107470;277;105665;-54
2023/09/19 03:41:41;;;;;;;12.70;11.20;;;;;;;18.10;79.64;99623.98;107478;277;113266;-57
2023/09/19 03:44:18;;;;;;;14.70;11.50;;;;;;;18.08;79.54;99626.20;107469;277;95231;-56
2023/09/19 03:46:55;;;;;;;14.10;11.30;;;;;;;18.06;79.74;99621.33;107519;277;96842;-51
2023/09/19 03:49:32;;;;;;;13.30;11.10;;;;;;;18.02;79.70;99625.73;107511;277;120678;-53
2023/09/19 03:52:08;;;;;;;14.50;11.50;;;;;;;17.98;80.08;99622.87;107529;277;105446;-57
2023/09/19 03:54:41;;;;;;;15.20;11.50;;;;;;;18.01;80.13;99624.81;107492;277;114595;-57
2023/09/19 03:57:20;;;;;;;12.80;11.40;;;;;;;18.05;80.09;99626.23;106794;277;926142;-52
2023/09/19 03:59:56;;;;;;;11.70;10.40;;;;;;;18.05;80.17;99622.08;107478;277;98193;-54
2023/09/19 04:02:33;;;;;;;12.30;11.00;;;;;;;18.09;80.17;99619.44;107700;277;120612;-58
2023/09/19 04:05:08;;;;;;;14.00;11.40;;;;;;;18.14;80.25;99611.35;107716;277;107228;-57
2023/09/19 04:07:46;;;;;;;13.60;11.60;;;;;;;18.22;80.47;99608.04;107528;277;113059;-57
2023/09/19 04:10:20;;;;;;;14.00;10.50;;;;;;;18.25;80.30;99605.66;107406;277;96416;-58
2023/09/19 04:12:57;;;;;;;13.00;11.00;;;;;;;18.29;80.13;99598.70;107464;277;97974;-54
2023/09/19 04:15:30;;;;;;;14.00;11.30;;;;;;;18.28;80.02;99594.97;107430;277;120265;-54
2023/09/19 04:18:03;;;;;;;12.60;10.80;;;;;;;18.29;79.80;99593.05;107763;277;104950;-58
2023/09/19 04:20:43;;;;;;;13.80;10.60;;;;;;;18.27;79.82;99592.65;107747;277;113532;-59
2023/09/19 04:23:28;;;;;;;13.50;11.10;;;;;;;18.26;79.93;99593.81;107689;277;96184;-59
2023/09/19 04:26:04;;;;;;;13.60;10.90;;;;;;;18.25;80.01;99594.55;107812;277;97127;-58
2023/09/19 04:28:41;;;;;;;14.50;11.30;;;;;;;18.22;80.06;99596.23;107807;277;119073;-59
2023/09/19 04:31:14;;;;;;;13.10;11.10;;;;;;;18.20;79.92;99590.25;107723;277;105249;-56
2023/09/19 04:33:56;;;;;;;15.40;11.00;;;;;;;18.20;79.95;99588.05;107477;277;113963;-57
2023/09/19 04:36:37;;;;;;;12.50;10.60;;;;;;;18.20;79.99;99584.17;107517;277;96084;-54
2023/09/19 04:39:12;;;;;;;12.60;10.70;;;;;;;18.22;80.19;99582.71;107603;277;98291;-54
2023/09/19 04:41:45;;;;;;;12.70;11.30;;;;;;;18.25;80.11;99587.34;107553;277;120937;-53
2023/09/19 04:44:27;;;;;;;11.90;10.50;;;;;;;18.22;80.09;99591.20;107476;277;105724;-53
2023/09/19 04:47:04;;;;;;;15.50;11.40;;;;;;;18.22;80.11;99587.38;107663;277;114964;-58
2023/09/19 04:49:39;;;;;;;15.50;11.40;;;;;;;18.25;79.98;99584.00;107797;277;96808;-58
2023/09/19 04:52:17;;;;;;;12.50;11.20;;;;;;;18.28;80.02;99585.02;107649;277;97212;-57
2023/09/19 04:54:52;;;;;;;12.10;10.80;;;;;;;18.28;80.09;99585.23;107590;277;119301;-56
2023/09/19 04:57:29;;;;;;;13.10;10.40;;;;;;;18.32;80.10;99583.52;107538;277;105313;-58
2023/09/19 05:00:02;;;;;;;14.00;11.30;;;;;;;18.36;80.06;99584.75;107529;277;113314;-57
2023/09/19 05:02:42;;;;;;;13.30;10.80;;;;;;;18.40;80.13;99582.48;107536;277;96969;-56
2023/09/19 05:05:25;;;;;;;12.10;10.20;;;;;;;18.45;80.28;99583.25;107552;277;97088;-56
2023/09/19 05:08:06;;;;;;;13.60;11.20;;;;;;;18.52;80.19;99582.46;107786;277;120332;-59
2023/09/19 05:10:42;;;;;;;13.30;10.60;;;;;;;18.69;80.21;99578.17;107774;277;104328;-59
2023/09/19 05:13:15;;;;;;;13.60;10.80;;;;;;;18.83;80.25;99576.38;107615;277;112881;-53
2023/09/19 05:15:51;;;;;;;13.30;10.10;;;;;;;18.97;80.03;99577.93;107610;277;95840;-52
2023/09/19 05:18:34;;;;;;;14.50;11.60;;;;;;;19.07;79.71;99568.41;107518;277;95846;-54
2023/09/19 05:21:08;;;;;;;12.10;10.70;;;;;;;19.17;79.58;99573.46;107660;277;120588;-55
2023/09/19 05:23:44;;;;;;;15.60;10.50;;;;;;;19.26;79.49;99574.55;107652;277;103812;-55
2023/09/19 05:26:20;;;;;;;12.70;10.50;;;;;;;19.32;79.02;99569.05;107592;277;114335;-56
2023/09/19 05:29:03;;;;;;;11.30;10.10;;;;;;;19.33;79.02;99572.23;107645;277;95240;-54
2023/09/19 05:31:43;;;;;;;13.70;10.90;;;;;;;19.36;78.87;99570.95;107647;277;97994;-53
2023/09/19 05:34:20;;;;;;;12.10;10.80;;;;;;;19.39;78.70;99569.77;107592;277;121076;-54
2023/09/19 05:36:56;;;;;;;12.00;10.80;;;;;;;19.40;78.72;99577.27;107640;277;104533;-54
2023/09/19 05:39:28;;;;;;;13.00;10.90;;;;;;;19.46;78.59;99576.16;107583;277;115074;-54
2023/09/19 05:42:00;;;;;;;12.60;10.80;;;;;;;19.43;78.48;99574.34;107669;277;96902;-56
2023/09/19 05:44:36;;;;;;;11.60;10.40;;;;;;;19.42;78.37;99574.82;107547;277;96881;-57
2023/09/19 05:47:24;;;;;;;11.40;9.50;;;;;;;19.43;78.20;99583.54;107629;277;120488;-59
2023/09/19 05:49:59;;;;;;;11.60;9.50;;;;;;;19.46;78.24;99581.09;107781;277;105090;-56
2023/09/19 05:52:38;;;;;;;12.30;10.60;;;;;;;19.53;78.16;99582.27;107534;277;114422;-55
2023/09/19 05:55:10;;;;;;;13.20;10.10;;;;;;;19.62;78.12;99582.48;107578;277;95600;-53
2023/09/19 05:57:54;;;;;;;12.30;10.10;;;;;;;19.78;77.98;99589.83;107620;277;97554;-55
2023/09/19 06:00:29;;;;;;;13.60;9.60;;;;;;;19.95;77.97;99587.46;107445;277;120492;-54
2023/09/19 06:03:06;;;;;;;11.80;10.40;;;;;;;20.07;77.73;99591.71;107911;277;105720;-58
2023/09/19 06:05:49;;;;;;;11.30;10.10;;;;;;;20.13;77.60;99597.21;107873;277;114622;-55
2023/09/19 06:08:37;;;;;;;11.20;10.10;;;;;;;20.10;77.55;99595.35;107546;277;95288;-57
2023/09/19 06:11:10;;;;;;;12.20;10.90;;;;;;;20.08;77.23;99597.98;107503;277;98224;-54
2023/09/19 06:13:48;;;;;;;12.90;10.40;;;;;;;20.05;77.00;99598.64;107486;277;120238;-52
2023/09/19 06:16:20;;;;;;;13.30;10.60;;;;;;;20.09;76.99;99592.54;107526;277;103269;-56
2023/09/19 06:18:55;;;;;;;14.30;10.40;;;;;;;20.10;76.90;99595.46;107420;277;113730;-58
2023/09/19 06:21:28;;;;;;;11.70;10.10;;;;;;;20.13;76.92;99597.98;107464;277;94119;-56
2023/09/19 06:24:04;;;;;;;11.20;9.90;;;;;;;20.21;76.85;99599.87;107430;277;97177;-56
2023/09/19 06:26:45;;;;;;;14.30;10.30;;;;;;;20.32;76.74;99597.73;107497;277;119773;-57
2023/09/19 06:29:26;;;;;;;11.80;10.30;;;;;;;20.49;76.70;99599.17;107447;277;106206;-57
2023/09/19 06:32:09;;;;;;;11.70;10.00;;;;;;;20.60;76.49;99605.33;107474;277;113986;-55
2023/09/19 06:34:43;;;;;;;13.30;10.10;;;;;;;20.66;76.38;99606.86;107474;277;95744;-56
2023/09/19 06:37:17;;;;;;;11.00;9.60;;;;;;;20.75;75.97;99614.23;107493;277;97253;-57
2023/09/19 06:39:53;;;;;;;15.30;10.40;;;;;;;20.76;75.97;99610.80;107427;277;122887;-56
2023/09/19 06:42:28;;;;;;;13.20;10.40;;;;;;;20.84;75.79;99607.63;107440;277;105424;-53
2023/09/19 06:45:04;;;;;;;11.30;10.10;;;;;;;20.96;75.38;99609.92;107448;277;112456;-54
2023/09/19 06:47:37;;;;;;;13.30;10.80;;;;;;;21.01;75.19;99614.96;107608;277;94586;-58
2023/09/19 06:50:13;;;;;;;12.30;11.00;;;;;;;21.08;75.16;99615.02;107651;277;96676;-58
2023/09/19 06:52:57;;;;;;;13.90;10.60;;;;;;;21.24;75.04;99613.42;107515;277;120774;-57
2023/09/19 06:55:31;;;;;;;12.70;10.50;;;;;;;21.51;75.14;99612.80;107539;277;105006;-56
2023/09/19 06:58:11;;;;;;;13.40;10.50;;;;;;;21.89;74.99;99614.05;107484;277;114647;-54
2023/09/19 07:00:45;;;;;;;14.10;10.90;;;;;;;22.29;74.16;99611.80;107527;277;95010;-54
2023/09/19 07:03:23;;;;;;;12.70;9.90;;;;;;;22.55;73.45;99613.60;107556;277;96879;-58
2023/09/19 07:05:56;;;;;;;13.80;11.20;;;;;;;22.68;72.64;99613.41;107457;277;121114;-56
2023/09/19 07:08:30;;;;;;;11.60;10.30;;;;;;;22.96;72.22;99616.41;107489;277;103837;-57
2023/09/19 07:11:06;;;;;;;14.20;11.30;;;;;;;23.14;71.73;99615.38;107483;277;114606;-58
2023/09/19 07:13:49;;;;;;;13.60;10.50;;;;;;;23.16;70.45;99619.83;107471;277;92843;-60
2023/09/19 07:16:29;;;;;;;12.10;10.90;;;;;;;23.01;70.27;99616.77;107533;277;97826;-58
2023/09/19 07:19:07;;;;;;;14.00;11.60;;;;;;;22.91;70.15;99622.47;107470;277;120693;-59
2023/09/19 07:21:47;;;;;;;12.80;11.30;;;;;;;22.86;70.11;99623.84;107524;277;104659;-57
2023/09/19 07:24:23;;;;;;;14.20;12.10;;;;;;;22.89;69.92;99630.38;107530;277;112714;-57
2023/09/19 07:27:01;;;;;;;13.10;11.70;;;;;;;23.04;69.75;99631.13;107520;277;92508;-59
2023/09/19 07:29:38;;;;;;;13.50;11.50;;;;;;;23.26;69.90;99633.16;107451;277;96622;-60
2023/09/19 07:32:17;;;;;;;12.90;11.50;;;;;;;23.45;69.86;99637.20;107522;277;120730;-58
2023/09/19 07:34:49;;;;;;;13.70;12.30;;;;;;;23.61;69.50;99639.16;107478;277;104122;-55
2023/09/19 07:37:22;;;;;;;15.40;12.90;;;;;;;23.82;68.53;99637.05;107456;277;114416;-54
2023/09/19 07:39:58;;;;;;;13.40;12.10;;;;;;;23.90;67.98;99645.87;107468;277;94146;-53
2023/09/19 07:42:44;;;;;;;13.40;11.80;;;;;;;23.83;67.95;99645.97;107469;277;98697;-59
2023/09/19 07:45:22;;;;;;;12.80;11.50;;;;;;;23.62;68.14;99653.10;107474;277;120311;-58
2023/09/19 07:47:59;;;;;;;13.70;12.30;;;;;;;23.41;68.19;99653.55;107462;277;104814;-54
2023/09/19 07:50:39;;;;;;;13.40;11.90;;;;;;;23.30;68.13;99656.33;107481;277;116125;-54
2023/09/19 07:53:18;;;;;;;13.00;11.70;;;;;;;23.24;68.16;99660.35;107677;277;93930;-59
2023/09/19 07:56:06;;;;;;;14.00;12.60;;;;;;;23.20;68.46;99665.85;107615;277;97679;-57
2023/09/19 07:58:43;;;;;;;13.00;11.50;;;;;;;23.26;68.27;99667.17;107517;277;118440;-57
2023/09/19 08:01:16;;;;;;;13.80;12.40;;;;;;;23.18;68.26;99670.67;107509;277;105474;-54
2023/09/19 08:03:53;;;;;;;13.20;11.60;;;;;;;23.11;68.34;99669.04;107509;277;114908;-54
2023/09/19 08:06:31;;;;;;;14.60;12.40;;;;;;;23.06;68.45;99670.27;107558;277;93926;-56
2023/09/19 08:09:08;;;;;;;13.90;12.40;;;;;;;22.97;68.31;99672.06;107475;277;97496;-57
2023/09/19 08:11:46;;;;;;;13.20;11.80;;;;;;;22.89;68.44;99669.38;107493;277;120522;-55
2023/09/19 08:14:25;;;;;;;11.80;10.40;;;;;;;22.81;68.58;99670.65;107466;277;105918;-55
2023/09/19 08:17:00;;;;;;;11.30;10.20;;;;;;;22.72;68.71;99672.70;107537;277;114608;-59
2023/09/19 08:19:41;;;;;;;12.80;11.50;;;;;;;22.58;68.67;99675.98;107677;277;93845;-59
2023/09/19 08:22:21;;;;;;;11.80;10.60;;;;;;;22.48;68.73;99685.83;107589;277;95876;-57
2023/09/19 08:25:04;;;;;;;14.40;10.40;;;;;;;22.31;69.14;99693.73;107405;277;119702;-57
2023/09/19 08:27:45;;;;;;;11.30;10.20;;;;;;;22.12;69.07;99703.56;107527;277;105576;-55
2023/09/19 08:30:23;;;;;;;11.70;10.20;;;;;;;22.03;69.27;99714.28;107478;277;115063;-55
2023/09/19 08:32:59;;;;;;;12.40;10.10;;;;;;;22.01;69.50;99712.30;107556;277;93919;-55
2023/09/19 08:35:45;;;;;;;11.00;9.80;;;;;;;22.06;69.72;99710.80;107618;277;96923;-55
2023/09/19 08:38:34;;;;;;;11.60;10.10;;;;;;;22.15;69.92;99710.60;107486;277;122955;-52
2023/09/19 08:41:10;;;;;;;13.70;11.00;;;;;;;22.17;69.86;99709.88;107606;277;105580;-57
2023/09/19 08:43:46;;;;;;;11.50;10.30;;;;;;;22.15;69.89;99706.58;107560;277;115168;-58
2023/09/19 08:46:31;;;;;;;10.90;9.90;;;;;;;22.00;69.99;99708.13;107578;277;94352;-54
2023/09/19 08:49:22;;;;;;;12.70;10.70;;;;;;;21.93;70.05;99700.45;107610;277;98006;-54
2023/09/19 08:52:08;;;;;;;12.20;9.90;;;;;;;21.82;70.23;99694.91;107648;277;121022;-59
2023/09/19 08:54:43;;;;;;;11.20;9.90;;;;;;;21.75;70.45;99693.94;107809;277;105749;-59
2023/09/19 08:57:22;;;;;;;12.10;9.60;;;;;;;21.70;70.78;99692.80;107655;277;113849;-56
2023/09/19 08:59:59;;;;;;;15.50;10.80;;;;;;;21.63;71.41;99693.95;107592;277;96713;-57
2023/09/19 09:02:47;;;;;;;11.20;10.10;;;;;;;21.51;72.16;99695.04;107488;277;97701;-55
2023/09/19 09:05:24;;;;;;;10.70;9.50;;;;;;;21.43;72.50;99690.70;107531;277;120996;-55
2023/09/19 09:08:03;;;;;;;10.30;9.30;;;;;;;21.37;72.92;99701.83;107635;277;106682;-56
2023/09/19 09:10:40;;;;;;;15.50;10.20;;;;;;;21.20;73.58;99693.83;107571;277;115030;-58
2023/09/19 09:13:24;;;;;;;15.60;11.30;;;;;;;20.95;74.29;99689.50;107509;277;95673;-55
2023/09/19 09:15:58;;;;;;;17.20;10.70;;;;;;;20.71;75.10;99698.88;107584;277;98333;-56
2023/09/19 09:18:31;;;;;;;11.30;9.60;;;;;;;20.63;75.52;99708.42;107557;277;118511;-57
2023/09/19 09:21:14;;;;;;;14.50;9.70;;;;;;;20.49;76.09;99717.55;107592;277;105250;-57
2023/09/19 09:23:59;;;;;;;13.90;9.90;;;;;;;20.37;76.67;99725.35;107807;277;113342;-59
2023/09/19 09:26:57;;;;;;;15.20;10.80;;;;;;;20.35;76.90;99733.14;108645;277;95727;-57
2023/09/19 09:29:49;;;;;;;14.00;10.50;;;;;;;20.29;77.47;99748.37;107622;277;96919;-56
2023/09/19 09:32:39;;;;;;;14.60;10.30;;;;;;;20.21;77.73;99758.45;108558;277;120975;-55
2023/09/19 09:35:21;;;;;;;12.50;10.60;;;;;;;20.16;78.23;99764.52;108868;277;105108;-60
2023/09/19 09:38:09;;;;;;;13.70;10.40;;;;;;;20.04;78.60;99772.25;107493;277;114820;-59
2023/09/19 09:40:53;;;;;;;14.40;10.50;;;;;;;20.01;79.06;99762.42;107403;277;96134;-60
2023/09/19 09:43:41;;;;;;;12.20;9.50;;;;;;;19.95;79.48;99754.92;107495;277;97717;-55
2023/09/19 09:49:33;;;;;;;13.10;9.90;;;;;;;19.92;80.44;99758.14;107409;277;105875;-55
2023/09/19 09:52:24;;;;;;;12.20;8.90;;;;;;;19.97;80.66;99760.98;107425;277;114394;-53
2023/09/19 09:55:08;;;;;;;9.70;8.60;;;;;;;19.98;80.80;99771.45;107470;277;96246;-53
2023/09/19 09:57:56;;;;;;;10.20;8.20;;;;;;;20.01;81.19;99774.10;107976;277;96749;-59
2023/09/19 10:01:01;;;;;;;9.80;7.90;;;;;;;20.03;81.58;99770.55;108437;277;119821;-58
2023/09/19 10:03:44;;;;;;;11.00;7.60;;;;;;;20.05;81.68;99771.38;107488;277;105310;-53
2023/09/19 10:06:47;;;;;;;9.70;7.20;;;;;;;20.10;81.79;99773.00;107850;277;113524;-54
2023/09/19 10:09:52;;;;;;;7.70;6.50;;;;;;;20.16;82.11;99765.07;109107;277;96024;-58
2023/09/19 10:12:30;;;;;;;7.40;5.90;;;;;;;20.23;82.15;99756.45;108021;277;96176;-54
2023/09/19 10:15:06;;;;;;;9.50;6.00;;;;;;;20.27;82.31;99754.85;107466;277;119974;-54
2023/09/19 10:17:46;;;;;;;6.70;6.00;;;;;;;20.33;82.54;99750.52;107476;277;105699;-54
2023/09/19 10:20:36;;;;;;;9.50;5.60;;;;;;;20.39;82.92;99748.68;107432;277;115457;-54
2023/09/19 10:23:13;;;;;;;7.60;6.80;;;;;;;20.46;82.74;99759.73;107557;277;96056;-58
2023/09/19 10:25:49;;;;;;;7.00;5.10;;;;;;;20.50;82.78;99761.78;107555;277;96239;-59
2023/09/19 10:28:30;;;;;;;7.20;5.70;;;;;;;20.57;82.78;99767.78;107478;277;120740;-54
2023/09/19 10:31:03;;;;;;;5.90;5.20;;;;;;;20.61;82.90;99768.89;107499;277;104742;-56
2023/09/19 10:33:38;;;;;;;5.50;4.90;;;;;;;20.69;82.77;99768.91;107477;277;115289;-58
2023/09/19 10:36:16;;;;;;;6.30;4.70;;;;;;;20.76;83.03;99769.64;107524;277;96707;-55
2023/09/19 10:39:02;;;;;;;8.90;5.50;;;;;;;20.90;82.82;99771.16;107548;277;97617;-53
2023/09/19 10:41:44;;;;;;;6.30;4.90;;;;;;;20.98;82.60;99774.96;107848;277;120663;-59
2023/09/19 10:44:28;;;;;;;7.20;5.20;;;;;;;21.01;82.86;99773.05;109042;277;103588;-54
2023/09/19 10:47:07;;;;;;;6.20;4.30;;;;;;;21.01;82.75;99777.22;108260;277;113700;-57
2023/09/19 10:49:53;;;;;;;6.30;4.00;;;;;;;21.08;83.02;99775.61;107425;277;96970;-56
2023/09/19 10:52:33;;;;;;;6.20;4.70;;;;;;;21.16;83.09;99777.98;107467;277;96865;-52
2023/09/19 10:55:11;;;;;;;5.50;4.60;;;;;;;21.17;82.90;99777.48;107439;277;120578;-53
2023/09/19 10:58:03;;;;;;;5.40;4.10;;;;;;;21.22;83.08;99784.31;108384;277;105980;-59
2023/09/19 11:00:55;;;;;;;5.70;4.70;;;;;;;21.23;83.07;99793.11;109034;277;112151;-57
2023/09/19 11:03:37;;;;;;;5.60;4.40;;;;;;;21.21;82.84;99794.25;107465;277;96916;-54
2023/09/19 11:06:13;;;;;;;5.80;4.30;;;;;;;21.23;82.66;99794.48;107489;277;97418;-59
2023/09/19 11:09:22;;;;;;;5.50;4.20;;;;;;;21.28;82.78;99793.60;107487;277;119690;-57
2023/09/19 11:12:08;;;;;;;4.70;4.20;;;;;;;21.33;82.93;99790.41;107929;277;105165;-57
2023/09/19 11:14:49;;;;;;;5.40;4.40;;;;;;;21.42;82.87;99790.98;107820;277;113180;-58
2023/09/19 11:17:40;;;;;;;5.80;4.00;;;;;;;21.40;82.76;99791.63;107718;277;95860;-56
2023/09/19 11:20:43;;;;;;;6.70;4.70;;;;;;;21.44;83.04;99790.91;107456;277;97329;-57
2023/09/19 11:24:09;;;;;;;5.90;4.90;;;;;;;21.48;82.92;99792.73;107467;277;118837;-57
2023/09/19 11:26:53;;;;;;;8.00;5.10;;;;;;;21.53;82.58;99785.63;107523;277;104155;-56
2023/09/19 11:29:30;;;;;;;;;;;;;;;21.48;82.50;99781.85;107469;277;114254;-55
2023/09/19 11:32:18;;;;;;;7.40;4.80;;;;;;;21.56;82.72;99786.17;107846;277;97345;-58
2023/09/19 11:35:14;;;;;;;11.90;7.40;;;;;;;21.65;82.76;99782.48;108147;277;95737;-58
2023/09/19 11:38:15;;;;;;;8.90;5.70;;;;;;;21.65;82.79;99785.89;108226;277;122091;-59
2023/09/19 11:41:26;;;;;;;6.70;5.50;;;;;;;21.57;82.43;99789.70;108221;277;103177;-55
2023/09/19 11:44:40;;;;;;;6.40;5.70;;;;;;;21.54;82.32;99793.11;107419;277;114364;-55
2023/09/19 11:47:22;;;;;;;6.70;6.00;;;;;;;21.46;82.63;99793.55;107886;277;96319;-59
2023/09/19 11:50:01;;;;;;;6.50;5.50;;;;;;;21.39;82.72;99793.60;108115;277;98082;-59
2023/09/19 11:52:44;;;;;;;6.40;5.10;;;;;;;21.40;82.77;99794.09;107558;277;120279;-55
2023/09/19 11:55:21;;;;;;;6.60;5.20;;;;;;;21.39;82.88;99797.95;107443;277;104492;-55
2023/09/19 11:57:59;;;;;;;6.10;5.30;;;;;;;21.39;82.99;99796.58;105989;277;2052450;-55
2023/09/19 12:00:33;;;;;;;8.50;5.80;;;;;;;21.46;83.26;99798.99;107475;277;95581;-53
2023/09/19 12:03:15;;;;;;;6.70;5.30;;;;;;;21.53;83.13;99800.76;107537;277;97495;-53
2023/09/19 12:05:50;;;;;;;6.70;5.60;;;;;;;21.60;83.17;99804.88;107470;277;120837;-55
2023/09/19 12:08:27;;;;;;;8.00;5.20;;;;;;;21.64;83.06;99805.42;107535;277;104851;-57
2023/09/19 12:10:59;;;;;;;7.40;5.20;;;;;;;21.72;82.70;99809.80;107464;277;114841;-55
2023/09/19 12:13:42;;;;;;;5.90;5.20;;;;;;;21.79;82.61;99808.09;107476;277;97562;-56
2023/09/19 12:16:25;;;;;;;6.70;5.20;;;;;;;21.81;82.71;99810.63;107611;277;98071;-60
2023/09/19 12:19:21;;;;;;;6.50;5.60;;;;;;;21.81;82.88;99816.08;107957;277;122642;-58